Time;durP1;ratioP1;P1;durP2;ratioP2;P2;SDS_P1;SDS_P2;PMS_P1;PMS_P2;Temp;Humidity;BMP_temperature;BMP_pressure;BME280_temperature;BME280_humidity;BME280_pressure;Samples;Min_cycle;Max_cycle;Signal;HPM_P1;HPM_P2
2023/01/14 00:00:18;;;;;;;17.03;2.60;;;7.20;99.90;;;;;;4861079;29;20293;-82
2023/01/14 00:02:44;;;;;;;13.63;2.30;;;7.00;99.90;;;;;;4858767;29;20032;-82
2023/01/14 00:05:09;;;;;;;19.10;2.88;;;6.90;99.90;;;;;;4853954;29;20056;-82
2023/01/14 00:07:35;;;;;;;13.20;2.13;;;6.90;99.90;;;;;;4883138;29;20036;-82
2023/01/14 00:10:01;;;;;;;13.07;2.58;;;6.90;99.90;;;;;;4861974;29;20100;-82
2023/01/14 00:12:27;;;;;;;9.80;1.83;;;6.90;99.90;;;;;;4871203;29;20091;-82
2023/01/14 00:14:52;;;;;;;14.77;2.57;;;6.90;99.90;;;;;;4854114;29;20360;-82
2023/01/14 00:17:18;;;;;;;11.70;1.88;;;6.90;99.90;;;;;;4878897;29;20288;-82
2023/01/14 00:19:44;;;;;;;10.68;2.08;;;6.90;99.90;;;;;;4846704;29;20051;-82
2023/01/14 00:22:10;;;;;;;14.67;2.20;;;7.10;99.90;;;;;;4849413;29;20144;-82
2023/01/14 00:24:36;;;;;;;15.23;2.25;;;6.90;99.90;;;;;;4878593;29;20388;-82
2023/01/14 00:27:01;;;;;;;11.48;2.08;;;6.90;99.90;;;;;;4867194;29;20044;-82
2023/01/14 00:29:30;;;;;;;13.70;2.27;;;6.90;99.90;;;;;;4861484;29;20172;-82
2023/01/14 00:32:04;;;;;;;11.13;2.25;;;6.90;99.90;;;;;;4878187;29;20317;-82
2023/01/14 00:34:32;;;;;;;13.65;1.92;;;6.90;99.90;;;;;;4887391;29;20048;-82
2023/01/14 00:36:58;;;;;;;11.15;2.45;;;6.90;99.90;;;;;;4876266;29;20043;-82
2023/01/14 00:39:24;;;;;;;13.40;1.95;;;6.90;99.90;;;;;;4873263;29;20068;-82
2023/01/14 00:41:50;;;;;;;;;;;7.70;99.90;;;;;;4881409;29;20040;-82
2023/01/14 00:44:19;;;;;;;16.15;2.38;;;6.80;99.90;;;;;;4872597;29;19930;-82
2023/01/14 00:46:45;;;;;;;12.85;1.70;;;6.90;99.90;;;;;;4897099;29;20445;-82
2023/01/14 00:49:22;;;;;;;9.77;1.80;;;6.90;99.90;;;;;;4855047;29;20104;-82
2023/01/14 00:51:48;;;;;;;11.95;1.75;;;6.80;99.90;;;;;;4883222;29;20055;-82
2023/01/14 00:54:14;;;;;;;12.98;3.47;;;6.90;99.90;;;;;;4875668;29;20040;-82
2023/01/14 00:56:39;;;;;;;19.05;2.83;;;6.90;99.90;;;;;;4875665;29;20044;-82
2023/01/14 00:59:06;;;;;;;15.70;1.92;;;6.90;99.90;;;;;;4854577;29;20139;-82
2023/01/14 01:01:32;;;;;;;;;;;7.00;99.90;;;;;;4859188;29;20077;-82
2023/01/14 01:03:58;;;;;;;15.45;2.00;;;7.00;99.90;;;;;;4896716;29;19994;-82
2023/01/14 01:06:25;;;;;;;8.05;1.52;;;7.00;99.90;;;;;;4887072;29;20048;-82
2023/01/14 01:08:58;;;;;;;14.05;3.25;;;7.00;99.90;;;;;;4891175;29;20087;-82
2023/01/14 01:11:24;;;;;;;15.55;2.78;;;7.00;99.90;;;;;;4868676;29;20039;-82
2023/01/14 01:13:50;;;;;;;11.48;2.67;;;7.00;99.90;;;;;;4877521;29;20071;-82
2023/01/14 01:16:23;;;;;;;12.20;1.88;;;7.40;99.90;;;;;;4847169;29;20075;-82
2023/01/14 01:18:50;;;;;;;16.48;2.38;;;7.10;99.90;;;;;;4881659;29;20052;-82
2023/01/14 01:21:16;;;;;;;;;;;7.10;99.90;;;;;;4893724;29;20052;-82
2023/01/14 01:23:43;;;;;;;11.35;2.20;;;7.20;99.90;;;;;;4885423;29;19927;-82
2023/01/14 01:26:15;;;;;;;9.90;1.67;;;7.10;99.90;;;;;;4876342;29;20100;-82
2023/01/14 01:28:41;;;;;;;11.82;1.88;;;7.10;99.90;;;;;;4875979;29;20051;-82
2023/01/14 01:31:11;;;;;;;26.77;3.53;;;7.10;99.90;;;;;;4887785;29;20385;-82
2023/01/14 01:33:37;;;;;;;11.93;1.83;;;7.00;99.90;;;;;;4887148;29;20036;-82
2023/01/14 01:36:04;;;;;;;;;;;7.40;99.90;;;;;;4896403;29;20063;-82
2023/01/14 01:38:31;;;;;;;13.05;2.08;;;7.00;99.90;;;;;;4891207;29;19919;-82
2023/01/14 01:40:57;;;;;;;16.92;2.65;;;6.90;99.90;;;;;;4881926;29;20048;-82
2023/01/14 01:43:27;;;;;;;8.18;1.65;;;6.80;99.90;;;;;;4863207;29;20044;-82
2023/01/14 01:45:53;;;;;;;11.38;1.83;;;6.80;99.90;;;;;;4883323;29;20051;-82
2023/01/14 01:48:40;;;;;;;18.13;2.42;;;6.80;99.90;;;;;;4881182;29;20156;-82
2023/01/14 01:51:19;;;;;;;17.47;2.70;;;6.70;99.90;;;;;;4880814;29;20048;-82
2023/01/14 01:53:49;;;;;;;18.65;2.63;;;6.70;99.90;;;;;;4895142;29;20040;-82
2023/01/14 01:56:19;;;;;;;14.32;2.33;;;6.60;99.90;;;;;;4878281;29;20040;-82
2023/01/14 01:58:45;;;;;;;15.25;2.38;;;6.60;99.90;;;;;;4889780;29;20048;-82
2023/01/14 02:01:13;;;;;;;23.35;2.92;;;6.60;99.90;;;;;;4879165;29;20153;-82
2023/01/14 02:03:43;;;;;;;15.80;2.17;;;6.50;99.90;;;;;;4853827;29;20044;-82
2023/01/14 02:06:10;;;;;;;11.02;2.15;;;6.50;99.90;;;;;;4872329;29;20060;-82
2023/01/14 02:08:39;;;;;;;18.65;2.53;;;6.50;99.90;;;;;;4892851;29;20052;-82
2023/01/14 02:11:30;;;;;;;16.23;2.40;;;6.60;99.90;;;;;;4899086;29;20040;-82
2023/01/14 02:14:04;;;;;;;13.45;2.72;;;6.60;99.90;;;;;;4887587;29;20495;-82
2023/01/14 02:16:30;;;;;;;13.75;2.65;;;6.60;99.90;;;;;;4892502;29;20037;-82
2023/01/14 02:19:30;;;;;;;12.20;2.00;;;6.60;99.90;;;;;;4879054;29;20417;-82
2023/01/14 02:22:23;;;;;;;13.63;1.92;;;6.60;99.90;;;;;;4891504;29;20489;-82
2023/01/14 02:25:16;;;;;;;13.98;2.05;;;6.60;99.90;;;;;;4867865;29;20044;-81
2023/01/14 02:28:01;;;;;;;15.73;3.17;;;6.60;99.90;;;;;;4888746;29;20040;-82
2023/01/14 02:30:58;;;;;;;14.68;2.13;;;6.60;99.90;;;;;;4884072;29;20262;-82
2023/01/14 02:33:49;;;;;;;16.97;2.67;;;6.60;99.90;;;;;;4897124;29;20075;-82
2023/01/14 02:36:30;;;;;;;13.02;2.63;;;6.50;99.90;;;;;;4887865;29;20288;-82
2023/01/14 02:39:16;;;;;;;12.60;1.90;;;6.50;99.90;;;;;;4885685;29;20457;-82
2023/01/14 02:44:42;;;;;;;18.33;2.30;;;6.40;99.90;;;;;;4887380;29;20462;-82
2023/01/14 02:47:20;;;;;;;19.10;2.13;;;6.50;99.90;;;;;;4882687;29;20084;-82
2023/01/14 02:49:51;;;;;;;14.23;2.53;;;6.40;99.90;;;;;;4867212;29;20036;-82
2023/01/14 02:52:18;;;;;;;14.32;2.20;;;6.50;99.90;;;;;;4875927;29;20112;-82
2023/01/14 02:55:01;;;;;;;16.15;2.95;;;6.50;99.90;;;;;;4883227;29;20037;-82
2023/01/14 02:57:35;;;;;;;16.13;2.80;;;6.40;99.90;;;;;;4857084;29;20048;-82
2023/01/14 03:00:17;;;;;;;14.68;2.45;;;6.40;99.90;;;;;;4880137;29;20104;-82
2023/01/14 03:03:10;;;;;;;14.20;2.30;;;6.30;99.90;;;;;;4889409;29;20048;-82
2023/01/14 03:06:05;;;;;;;15.38;2.65;;;6.30;99.90;;;;;;4888531;29;20052;-82
2023/01/14 03:09:20;;;;;;;13.15;2.42;;;6.30;99.90;;;;;;4889280;29;20048;-82
2023/01/14 03:11:55;;;;;;;9.95;2.20;;;6.30;99.90;;;;;;4870170;29;20509;-82
2023/01/14 03:14:32;;;;;;;12.20;2.30;;;6.30;99.90;;;;;;4894087;29;20043;-82
2023/01/14 03:17:15;;;;;;;12.90;2.03;;;6.40;99.90;;;;;;4879916;29;20047;-82
2023/01/14 03:19:50;;;;;;;18.25;2.67;;;6.30;99.90;;;;;;4880114;29;20047;-82
2023/01/14 03:22:16;;;;;;;13.68;1.98;;;6.20;99.90;;;;;;4892925;29;20049;-82
2023/01/14 03:24:44;;;;;;;14.93;2.20;;;6.10;99.90;;;;;;4866237;29;20037;-82
2023/01/14 03:27:23;;;;;;;13.15;2.13;;;6.40;99.90;;;;;;4863703;29;20056;-82
2023/01/14 03:30:01;;;;;;;14.80;2.22;;;6.10;99.90;;;;;;4863599;29;20047;-82
2023/01/14 03:32:44;;;;;;;17.67;1.90;;;6.10;99.90;;;;;;4847779;29;20124;-82
2023/01/14 03:35:36;;;;;;;25.08;4.07;;;6.10;99.90;;;;;;4891709;29;20122;-82
2023/01/14 03:38:27;;;;;;;19.17;2.63;;;6.40;99.90;;;;;;4876670;29;20401;-82
2023/01/14 03:40:56;;;;;;;17.15;3.25;;;6.10;99.90;;;;;;4878721;29;20048;-82
2023/01/14 03:43:26;;;;;;;11.82;2.08;;;6.00;99.90;;;;;;4890581;29;20051;-82
2023/01/14 03:45:52;;;;;;;14.50;1.80;;;6.00;99.90;;;;;;4876842;29;20089;-82
2023/01/14 03:48:18;;;;;;;14.55;1.88;;;6.00;99.90;;;;;;4879004;29;20036;-82
2023/01/14 03:51:15;;;;;;;15.55;2.40;;;6.00;99.90;;;;;;4846590;29;20478;-82
2023/01/14 03:53:58;;;;;;;9.40;2.15;;;6.00;99.90;;;;;;4870395;29;20509;-82
2023/01/14 03:57:10;;;;;;;15.00;2.30;;;5.90;99.90;;;;;;4878335;29;20489;-82
2023/01/14 03:59:58;;;;;;;15.52;1.95;;;6.00;99.90;;;;;;4856270;29;20056;-82
2023/01/14 04:02:25;;;;;;;11.65;1.77;;;6.10;99.90;;;;;;4863113;29;20041;-82
2023/01/14 04:04:52;;;;;;;11.48;1.95;;;6.00;99.90;;;;;;4878488;29;20405;-82
2023/01/14 04:07:18;;;;;;;16.13;2.42;;;6.20;99.90;;;;;;4891512;29;20402;-82
2023/01/14 04:09:44;;;;;;;12.15;1.75;;;6.00;99.90;;;;;;4872314;29;20048;-82
2023/01/14 04:12:09;;;;;;;12.20;2.00;;;6.10;99.90;;;;;;4847345;29;20475;-82
2023/01/14 04:17:19;;;;;;;10.80;2.10;;;6.00;99.90;;;;;;4887966;29;20043;-82
2023/01/14 04:19:45;;;;;;;9.40;2.65;;;5.90;99.90;;;;;;4890373;29;20477;-82
2023/01/14 04:22:11;;;;;;;17.27;2.83;;;6.00;99.90;;;;;;4847161;29;20421;-82
2023/01/14 04:24:36;;;;;;;15.00;2.97;;;5.90;99.90;;;;;;4892650;29;20059;-82
2023/01/14 04:27:02;;;;;;;22.77;3.20;;;5.90;99.90;;;;;;4867549;29;20292;-82
2023/01/14 04:29:28;;;;;;;7.05;1.63;;;5.90;99.90;;;;;;4878478;29;20040;-82
2023/01/14 04:31:54;;;;;;;11.30;2.23;;;5.80;99.90;;;;;;4863061;29;20036;-82
2023/01/14 04:34:19;;;;;;;12.52;2.65;;;6.10;99.90;;;;;;4872089;29;20436;-82
2023/01/14 04:36:45;;;;;;;21.17;2.40;;;5.80;99.90;;;;;;4863369;29;20048;-82
2023/01/14 04:39:11;;;;;;;8.93;1.83;;;5.80;99.90;;;;;;4881726;29;20091;-82
2023/01/14 04:44:20;;;;;;;12.27;1.42;;;5.90;99.90;;;;;;4872908;29;20537;-82
2023/01/14 04:46:46;;;;;;;9.60;1.70;;;5.90;99.90;;;;;;4881289;29;20048;-82
2023/01/14 04:49:12;;;;;;;14.57;1.70;;;5.90;99.90;;;;;;4885830;29;20778;-82
2023/01/14 04:51:37;;;;;;;14.33;2.13;;;6.00;99.90;;;;;;4874497;29;20508;-82
2023/01/14 04:54:03;;;;;;;16.85;2.28;;;5.90;99.90;;;;;;4884617;29;20455;-82
2023/01/14 04:56:29;;;;;;;12.07;2.50;;;5.90;99.90;;;;;;4847449;29;20044;-82
2023/01/14 04:58:55;;;;;;;12.05;1.88;;;5.90;99.90;;;;;;4862632;29;20044;-83
2023/01/14 05:01:20;;;;;;;12.07;1.95;;;5.80;99.90;;;;;;4878733;29;20151;-82
2023/01/14 05:03:46;;;;;;;13.97;1.77;;;5.80;99.90;;;;;;4883658;29;20041;-82
2023/01/14 05:06:12;;;;;;;14.07;2.47;;;5.80;99.90;;;;;;4866894;29;20837;-82
2023/01/14 05:08:37;;;;;;;12.25;1.70;;;6.90;99.90;;;;;;4858755;29;20412;-82
2023/01/14 05:11:03;;;;;;;10.57;1.85;;;5.70;99.90;;;;;;4866651;29;20048;-82
2023/01/14 05:13:29;;;;;;;10.48;1.67;;;5.70;99.90;;;;;;4878561;29;20041;-82
2023/01/14 05:16:00;;;;;;;15.17;2.13;;;5.80;99.90;;;;;;4874500;29;20037;-82
2023/01/14 05:18:25;;;;;;;11.73;1.70;;;5.60;99.90;;;;;;4875376;29;20293;-82
2023/01/14 05:20:51;;;;;;;10.90;1.90;;;5.60;99.90;;;;;;4875660;29;20528;-82
2023/01/14 05:23:18;;;;;;;12.18;1.60;;;5.60;99.90;;;;;;4889265;29;20044;-83
2023/01/14 05:25:45;;;;;;;10.60;1.75;;;6.20;99.90;;;;;;4857939;29;20044;-82
2023/01/14 05:28:12;;;;;;;;;;;5.60;99.90;;;;;;4875254;29;20524;-82
2023/01/14 05:30:38;;;;;;;15.60;2.83;;;5.60;99.90;;;;;;4879125;29;19920;-82
2023/01/14 05:33:04;;;;;;;11.13;1.98;;;5.50;99.90;;;;;;4877809;29;20048;-83
2023/01/14 05:35:30;;;;;;;12.98;2.25;;;6.00;99.90;;;;;;4856380;29;20090;-82
2023/01/14 05:37:56;;;;;;;13.85;2.25;;;5.60;99.90;;;;;;4891568;29;20044;-83
2023/01/14 05:40:21;;;;;;;11.80;2.53;;;5.70;99.90;;;;;;4867381;29;20041;-82
2023/01/14 05:45:49;;;;;;;18.20;2.50;;;5.70;99.90;;;;;;4885182;29;20055;-82
2023/01/14 05:48:16;;;;;;;14.20;2.10;;;5.70;99.90;;;;;;4847466;29;20037;-82
2023/01/14 05:50:42;;;;;;;;;;;5.70;99.90;;;;;;4865953;29;20552;-82
2023/01/14 05:53:08;;;;;;;11.75;2.55;;;5.70;99.90;;;;;;4879797;29;20012;-82
2023/01/14 05:55:35;;;;;;;12.32;2.28;;;6.10;99.90;;;;;;4869155;29;20076;-82
2023/01/14 05:58:02;;;;;;;12.38;2.10;;;5.80;99.90;;;;;;4896038;29;20044;-82
2023/01/14 06:06:22;;;;;;;16.27;3.55;;;5.90;99.90;;;;;;4875590;29;20104;-82
2023/01/14 06:09:09;;;;;;;12.48;2.30;;;5.80;99.90;;;;;;4848726;29;20047;-82
2023/01/14 06:11:36;;;;;;;14.52;2.30;;;5.80;99.90;;;;;;4881472;29;20036;-82
2023/01/14 06:14:03;;;;;;;12.98;2.00;;;5.80;99.90;;;;;;4895875;29;20040;-82
2023/01/14 06:16:32;;;;;;;15.25;2.55;;;5.80;99.90;;;;;;4879876;29;20044;-82
2023/01/14 06:18:58;;;;;;;19.90;2.92;;;5.80;99.90;;;;;;4895931;29;20130;-81
2023/01/14 06:21:29;;;;;;;11.38;1.77;;;5.80;99.90;;;;;;4888500;29;20040;-81
2023/01/14 06:23:56;;;;;;;17.35;2.38;;;5.80;99.90;;;;;;4895330;29;20043;-82
2023/01/14 06:26:29;;;;;;;15.80;2.83;;;5.80;99.90;;;;;;4890980;29;20115;-82
2023/01/14 06:29:07;;;;;;;17.73;3.15;;;5.70;99.90;;;;;;4881634;29;20040;-82
2023/01/14 06:31:33;;;;;;;17.20;3.70;;;5.80;99.90;;;;;;4862748;29;20041;-82
2023/01/14 06:34:02;;;;;;;17.55;2.80;;;5.80;99.90;;;;;;4896963;29;20107;-82
2023/01/14 06:36:30;;;;;;;16.60;3.45;;;5.80;99.90;;;;;;4853706;29;20114;-82
2023/01/14 06:38:55;;;;;;;16.85;3.47;;;5.80;99.90;;;;;;4866697;29;20055;-82
2023/01/14 06:41:21;;;;;;;20.02;3.58;;;6.00;99.90;;;;;;4871586;29;20048;-82
2023/01/14 06:43:47;;;;;;;21.27;3.63;;;5.80;99.90;;;;;;4872023;29;20044;-82
2023/01/14 06:46:15;;;;;;;17.10;3.97;;;5.80;99.90;;;;;;4862288;29;20045;-82
2023/01/14 06:48:42;;;;;;;9.90;2.30;;;5.70;99.90;;;;;;4882414;29;20075;-82
2023/01/14 06:51:14;;;;;;;23.35;3.90;;;5.70;99.90;;;;;;4886158;29;20426;-82
2023/01/14 06:53:40;;;;;;;15.65;3.70;;;5.80;99.90;;;;;;4896022;29;20047;-82
2023/01/14 06:56:10;;;;;;;;;;;6.20;99.90;;;;;;4896793;29;20135;-82
2023/01/14 06:58:36;;;;;;;19.52;3.85;;;5.90;99.90;;;;;;4875694;29;19923;-82
2023/01/14 07:01:02;;;;;;;13.57;4.38;;;5.90;99.90;;;;;;4852490;29;20108;-82
2023/01/14 07:03:28;;;;;;;21.33;5.03;;;5.80;99.90;;;;;;4864049;29;20044;-82
2023/01/14 07:05:54;;;;;;;17.95;3.28;;;5.80;99.90;;;;;;4868757;29;20048;-82
2023/01/14 07:08:21;;;;;;;13.00;4.60;;;5.80;99.90;;;;;;4863788;29;20056;-82
2023/01/14 07:10:50;;;;;;;17.67;4.20;;;5.80;99.90;;;;;;4870441;29;20040;-82
2023/01/14 07:13:21;;;;;;;25.48;5.28;;;5.70;99.90;;;;;;4886935;29;20087;-82
2023/01/14 07:15:47;;;;;;;16.65;3.97;;;5.80;99.90;;;;;;4879922;29;20041;-82
2023/01/14 07:18:13;;;;;;;17.80;5.18;;;5.80;99.90;;;;;;4876458;29;20122;-82
2023/01/14 07:20:39;;;;;;;16.27;4.00;;;5.80;99.90;;;;;;4867473;29;20058;-82
2023/01/14 07:23:05;;;;;;;19.10;4.93;;;5.80;99.90;;;;;;4882984;29;20635;-82
2023/01/14 07:25:31;;;;;;;19.17;3.63;;;5.80;99.90;;;;;;4882108;29;20047;-82
2023/01/14 07:27:56;;;;;;;16.45;4.03;;;5.90;99.90;;;;;;4866366;29;20382;-82
2023/01/14 07:30:22;;;;;;;21.98;4.72;;;5.90;99.90;;;;;;4832821;29;20123;-82
2023/01/14 07:32:48;;;;;;;22.17;4.10;;;6.00;99.90;;;;;;4875437;29;20041;-82
2023/01/14 07:35:14;;;;;;;20.65;3.55;;;5.90;99.90;;;;;;4856616;29;20036;-82
2023/01/14 07:37:39;;;;;;;15.65;3.78;;;6.00;99.90;;;;;;4857486;29;20045;-82
2023/01/14 07:40:06;;;;;;;18.67;4.15;;;6.10;99.90;;;;;;4864205;29;20177;-82
2023/01/14 07:42:31;;;;;;;;;;;6.00;99.90;;;;;;4895601;29;20036;-82
2023/01/14 07:44:57;;;;;;;21.35;3.70;;;5.90;99.90;;;;;;4880028;29;20331;-82
2023/01/14 07:47:23;;;;;;;17.92;3.42;;;6.00;99.90;;;;;;4833377;29;20103;-82
2023/01/14 07:49:49;;;;;;;18.48;3.85;;;6.20;99.90;;;;;;4870275;29;20032;-82
2023/01/14 07:52:14;;;;;;;23.33;4.25;;;6.10;99.90;;;;;;4887865;29;20130;-82
2023/01/14 07:54:41;;;;;;;20.48;4.22;;;6.10;99.90;;;;;;4871797;29;20047;-88
2023/01/14 07:57:11;;;;;;;15.70;4.15;;;6.70;99.90;;;;;;4884369;29;20097;-82
2023/01/14 07:59:38;;;;;;;20.30;4.85;;;6.20;99.90;;;;;;4883326;29;20084;-81
2023/01/14 08:02:05;;;;;;;15.40;3.83;;;6.20;99.90;;;;;;4882574;29;20044;-81
2023/01/14 08:04:32;;;;;;;17.63;4.32;;;7.70;99.90;;;;;;4872851;29;20047;-81
2023/01/14 08:06:58;;;;;;;23.85;3.40;;;6.20;99.90;;;;;;4875851;29;20044;-81
2023/01/14 08:09:25;;;;;;;10.93;3.22;;;6.20;99.90;;;;;;4875017;29;20040;-82
2023/01/14 08:11:52;;;;;;;14.88;4.38;;;6.30;99.90;;;;;;4868957;29;20044;-81
2023/01/14 08:14:17;;;;;;;;;;;6.80;99.90;;;;;;4898198;29;20404;-81
2023/01/14 08:16:43;;;;;;;23.73;4.15;;;6.30;99.90;;;;;;4879731;29;20025;-81
2023/01/14 08:19:10;;;;;;;19.63;3.60;;;6.40;99.90;;;;;;4866502;29;20112;-81
2023/01/14 08:21:36;;;;;;;18.45;3.47;;;6.40;99.90;;;;;;4854503;29;20470;-81
2023/01/14 08:24:02;;;;;;;23.02;4.63;;;6.50;99.90;;;;;;4881594;29;20067;-82
2023/01/14 08:26:27;;;;;;;12.32;3.20;;;6.30;99.90;;;;;;4881091;29;20123;-81
2023/01/14 08:28:53;;;;;;;13.77;3.87;;;6.70;99.90;;;;;;4881332;29;20043;-81
2023/01/14 08:31:19;;;;;;;23.07;4.13;;;6.30;99.90;;;;;;4888445;29;20125;-81
2023/01/14 08:33:45;;;;;;;11.52;3.30;;;6.30;99.90;;;;;;4890653;29;20416;-82
2023/01/14 08:36:14;;;;;;;13.35;3.30;;;6.40;99.90;;;;;;4882947;29;20486;-82
2023/01/14 08:38:44;;;;;;;22.63;3.95;;;6.40;99.90;;;;;;4873559;29;20077;-82
2023/01/14 08:41:12;;;;;;;18.20;3.20;;;6.40;99.90;;;;;;4887043;29;20563;-82
2023/01/14 08:43:38;;;;;;;19.95;3.38;;;6.50;99.90;;;;;;4869646;29;20115;-82
2023/01/14 08:46:05;;;;;;;;;;;6.30;99.90;;;;;;4897139;29;20408;-81
2023/01/14 08:48:31;;;;;;;18.83;4.60;;;6.30;99.90;;;;;;4896158;29;19931;-81
2023/01/14 08:51:01;;;;;;;12.50;3.08;;;6.30;99.90;;;;;;4895424;29;20036;-81
2023/01/14 08:53:31;;;;;;;17.42;4.03;;;6.30;99.90;;;;;;4861949;29;20092;-81
2023/01/14 08:56:00;;;;;;;12.63;4.03;;;6.30;99.90;;;;;;4880494;29;20501;-79
2023/01/14 08:58:26;;;;;;;22.60;3.30;;;6.20;99.90;;;;;;4877674;29;20037;-80
2023/01/14 09:01:01;;;;;;;20.23;5.15;;;6.10;99.90;;;;;;4884231;29;20051;-80
2023/01/14 09:03:32;;;;;;;19.05;3.90;;;6.20;99.90;;;;;;4886256;29;20040;-80
2023/01/14 09:05:59;;;;;;;21.33;3.15;;;6.20;99.90;;;;;;4878319;29;20107;-79
2023/01/14 09:17:06;;;;;;;11.02;3.20;;;6.20;99.90;;;;;;4882421;29;20520;-80
2023/01/14 09:19:33;;;;;;;15.27;3.08;;;6.20;99.90;;;;;;4877237;29;20044;-80
2023/01/14 09:21:59;;;;;;;15.25;2.30;;;6.20;99.90;;;;;;4888636;29;20083;-80
2023/01/14 09:24:24;;;;;;;10.13;2.60;;;6.40;99.90;;;;;;4871804;29;20044;-78
2023/01/14 09:26:50;;;;;;;15.65;3.15;;;6.20;99.90;;;;;;4872630;29;20041;-80
2023/01/14 09:29:16;;;;;;;14.27;2.88;;;6.10;99.90;;;;;;4878140;29;20516;-79
2023/01/14 09:31:41;;;;;;;12.23;3.10;;;6.20;99.90;;;;;;4877562;29;20044;-80
2023/01/14 09:34:07;;;;;;;9.30;2.42;;;6.20;99.90;;;;;;4862486;29;20545;-80
2023/01/14 09:36:33;;;;;;;17.85;3.17;;;6.20;99.90;;;;;;4877326;29;20041;-79
2023/01/14 09:38:58;;;;;;;12.38;2.60;;;6.10;99.90;;;;;;4871732;29;20374;-77
2023/01/14 09:41:32;;;;;;;13.03;3.63;;;6.20;99.90;;;;;;4893324;29;20047;-77
2023/01/14 09:43:59;;;;;;;20.92;3.08;;;6.10;99.90;;;;;;4896223;29;20311;-77
2023/01/14 09:46:26;;;;;;;10.70;2.38;;;6.00;99.90;;;;;;4896398;29;20115;-76
2023/01/14 09:48:55;;;;;;;12.52;2.70;;;6.00;99.90;;;;;;4878434;29;20043;-77
2023/01/14 09:51:24;;;;;;;14.80;2.75;;;6.30;99.90;;;;;;4871255;29;20044;-76
2023/01/14 09:53:49;;;;;;;11.45;2.50;;;6.10;99.90;;;;;;4883824;29;20048;-76
2023/01/14 09:56:44;;;;;;;13.50;2.50;;;6.10;99.90;;;;;;4881900;29;20041;-76
2023/01/14 09:59:22;;;;;;;11.80;2.70;;;6.10;99.90;;;;;;4867987;29;20063;-76
2023/01/14 10:02:17;;;;;;;9.88;2.55;;;6.10;99.90;;;;;;4861409;29;20047;-76
2023/01/14 10:04:50;;;;;;;10.27;2.05;;;6.20;99.90;;;;;;4859763;29;20519;-77
2023/01/14 10:07:17;;;;;;;7.35;2.63;;;6.10;99.90;;;;;;4880804;29;20516;-76
2023/01/14 10:09:48;;;;;;;8.40;2.38;;;6.20;99.90;;;;;;4880745;29;20385;-76
2023/01/14 10:12:27;;;;;;;12.90;2.75;;;6.20;99.90;;;;;;4865344;29;20036;-76
2023/01/14 10:15:26;;;;;;;10.50;2.42;;;6.20;99.90;;;;;;4880829;29;20045;-76
2023/01/14 10:17:57;;;;;;;9.52;1.80;;;6.30;99.90;;;;;;4880876;29;20052;-76
2023/01/14 10:20:41;;;;;;;9.90;2.22;;;6.30;99.90;;;;;;4881356;29;20044;-75
2023/01/14 10:23:21;;;;;;;11.45;2.40;;;6.30;99.90;;;;;;4881296;29;20045;-76
2023/01/14 10:25:49;;;;;;;5.00;1.60;;;6.30;99.90;;;;;;4880475;29;20033;-76
2023/01/14 10:28:18;;;;;;;5.65;1.75;;;6.30;99.90;;;;;;4880736;29;20040;-76
2023/01/14 10:30:47;;;;;;;5.28;1.52;;;6.40;99.90;;;;;;4876017;29;20048;-76
2023/01/14 10:33:15;;;;;;;10.20;1.85;;;6.40;99.90;;;;;;4877374;29;20046;-76
2023/01/14 10:35:45;;;;;;;6.68;1.30;;;6.30;99.90;;;;;;4888414;29;20063;-76
2023/01/14 10:38:24;;;;;;;2.88;1.30;;;6.40;99.90;;;;;;4897886;29;20047;-76
2023/01/14 10:40:52;;;;;;;8.38;1.60;;;6.50;99.90;;;;;;4897320;29;20043;-76
2023/01/14 10:43:28;;;;;;;7.03;1.55;;;6.40;99.90;;;;;;4892637;29;20727;-76
2023/01/14 10:45:54;;;;;;;5.75;1.55;;;6.50;99.90;;;;;;4874938;29;20041;-76
2023/01/14 10:48:21;;;;;;;6.32;1.40;;;6.80;99.90;;;;;;4863898;29;20048;-76
2023/01/14 10:50:47;;;;;;;6.13;1.48;;;6.70;99.90;;;;;;4862848;29;20093;-77
2023/01/14 10:53:16;;;;;;;4.78;1.90;;;6.70;99.90;;;;;;4860388;29;20043;-76
2023/01/14 10:55:55;;;;;;;4.15;2.03;;;6.80;99.90;;;;;;4878039;29;20442;-76
2023/01/14 10:58:43;;;;;;;3.45;1.60;;;6.70;99.90;;;;;;4892957;29;20051;-76
2023/01/14 11:01:10;;;;;;;3.92;1.15;;;6.70;99.90;;;;;;4897557;29;20374;-76
2023/01/14 11:03:48;;;;;;;4.32;1.42;;;6.90;99.90;;;;;;4889353;29;20130;-76
2023/01/14 11:06:16;;;;;;;4.47;1.88;;;6.90;99.90;;;;;;4895069;29;20056;-77
2023/01/14 11:08:50;;;;;;;7.40;1.48;;;6.90;99.90;;;;;;4880974;29;20047;-76
2023/01/14 11:11:17;;;;;;;8.13;1.77;;;7.00;99.90;;;;;;4881386;29;20048;-77
2023/01/14 11:13:48;;;;;;;2.92;1.40;;;7.10;99.90;;;;;;4888853;29;20099;-76
2023/01/14 11:16:27;;;;;;;4.13;1.33;;;7.00;99.90;;;;;;4865436;29;20048;-76
2023/01/14 11:19:14;;;;;;;6.80;1.80;;;7.00;99.90;;;;;;4871598;29;20036;-76
2023/01/14 11:21:46;;;;;;;3.90;1.40;;;7.00;99.90;;;;;;4889595;29;20040;-76
2023/01/14 11:24:38;;;;;;;8.30;1.40;;;6.90;99.90;;;;;;4877811;29;20051;-76
2023/01/14 11:27:05;;;;;;;3.33;1.55;;;7.00;99.90;;;;;;4873223;29;20060;-76
2023/01/14 11:29:37;;;;;;;1.83;1.23;;;6.90;99.90;;;;;;4879210;29;20040;-76
2023/01/14 11:32:12;;;;;;;3.30;1.20;;;6.90;99.90;;;;;;4858976;29;20041;-76
2023/01/14 11:34:47;;;;;;;5.93;1.48;;;7.00;99.90;;;;;;4874743;29;20056;-76
2023/01/14 11:37:18;;;;;;;3.10;1.52;;;7.00;99.90;;;;;;4872970;29;20040;-76
2023/01/14 11:39:53;;;;;;;2.58;1.70;;;7.00;99.90;;;;;;4863715;29;20420;-75
2023/01/14 11:42:35;;;;;;;4.22;1.45;;;7.00;99.90;;;;;;4879487;29;21162;-76
2023/01/14 11:45:10;;;;;;;4.72;1.60;;;7.00;99.90;;;;;;4862059;29;20063;-76
2023/01/14 11:47:57;;;;;;;2.80;1.10;;;7.00;99.90;;;;;;4878474;29;20047;-76
2023/01/14 11:50:34;;;;;;;6.47;1.23;;;7.00;99.90;;;;;;4881807;29;20077;-76
2023/01/14 11:53:16;;;;;;;4.78;1.48;;;7.00;99.90;;;;;;4877069;29;20044;-76
2023/01/14 11:55:44;;;;;;;2.42;1.15;;;6.90;99.90;;;;;;4887946;29;20131;-76
2023/01/14 11:58:29;;;;;;;4.60;1.50;;;6.90;99.90;;;;;;4886802;29;20533;-76
2023/01/14 12:01:05;;;;;;;4.38;1.13;;;6.90;99.90;;;;;;4887283;29;20427;-76
2023/01/14 12:03:59;;;;;;;4.80;1.70;;;7.00;99.90;;;;;;4881349;29;20079;-76
2023/01/14 12:06:31;;;;;;;3.28;1.40;;;7.00;99.90;;;;;;4874795;29;20052;-76
2023/01/14 12:09:01;;;;;;;2.85;1.27;;;7.10;99.90;;;;;;4882324;29;20448;-76
2023/01/14 12:11:45;;;;;;;2.30;1.67;;;7.20;99.90;;;;;;4882641;29;20071;-76
2023/01/14 12:17:12;;;;;;;3.95;1.80;;;7.10;99.90;;;;;;4847122;29;20045;-75
2023/01/14 12:19:49;;;;;;;5.05;1.63;;;7.10;99.90;;;;;;4886662;29;20048;-76
2023/01/14 12:22:17;;;;;;;2.78;1.00;;;7.10;99.90;;;;;;4880471;29;20072;-76
2023/01/14 12:24:54;;;;;;;0.88;0.80;;;7.20;99.90;;;;;;4861909;29;20123;-76
2023/01/14 12:27:44;;;;;;;4.03;1.55;;;7.30;99.90;;;;;;4891306;29;20098;-76
2023/01/14 12:30:27;;;;;;;3.78;1.17;;;7.30;99.90;;;;;;4891388;29;20059;-76
2023/01/14 12:33:08;;;;;;;2.70;1.00;;;7.30;99.90;;;;;;4890799;29;20040;-76
2023/01/14 12:35:47;;;;;;;4.55;1.60;;;7.30;99.90;;;;;;4894590;29;20043;-77
2023/01/14 12:47:33;;;;;;;4.28;1.13;;;7.50;99.90;;;;;;4877954;29;20037;-76
2023/01/14 12:50:00;;;;;;;1.70;1.00;;;7.60;99.90;;;;;;4860936;29;20481;-76
2023/01/14 12:52:32;;;;;;;2.45;1.02;;;7.60;99.90;;;;;;4859567;29;20065;-76
2023/01/14 12:55:00;;;;;;;5.32;1.95;;;7.60;99.90;;;;;;4880681;29;20078;-76
2023/01/14 12:57:27;;;;;;;3.00;1.20;;;7.60;99.90;;;;;;4881240;29;20158;-77
2023/01/14 13:00:11;;;;;;;4.45;1.27;;;7.70;99.90;;;;;;4872643;29;20048;-76
2023/01/14 13:02:46;;;;;;;2.00;1.17;;;7.70;99.90;;;;;;4887072;29;20040;-76
2023/01/14 13:05:16;;;;;;;1.98;1.10;;;7.70;99.90;;;;;;4874356;29;20040;-76
2023/01/14 13:07:53;;;;;;;2.55;1.10;;;7.70;99.90;;;;;;4880686;29;20486;-77
2023/01/14 13:10:38;;;;;;;2.60;1.00;;;7.90;99.90;;;;;;4874143;29;20557;-76
2023/01/14 13:13:17;;;;;;;1.80;0.90;;;7.90;99.90;;;;;;4891988;29;20040;-77
2023/01/14 13:15:43;;;;;;;1.73;0.73;;;7.90;99.90;;;;;;4880408;29;20044;-77
2023/01/14 13:18:34;;;;;;;1.58;0.60;;;7.90;99.90;;;;;;4893710;29;20036;-77
2023/01/14 13:21:09;;;;;;;1.50;0.80;;;7.90;99.90;;;;;;4869477;29;20058;-77
2023/01/14 13:23:44;;;;;;;1.30;0.85;;;8.10;99.90;;;;;;4889163;29;20045;-77
2023/01/14 13:26:41;;;;;;;3.78;0.93;;;8.20;99.90;;;;;;4863346;29;20075;-78
2023/01/14 13:29:20;;;;;;;1.75;0.80;;;8.20;99.90;;;;;;4876321;29;20075;-78
2023/01/14 13:31:45;;;;;;;2.25;0.80;;;8.20;99.90;;;;;;4875000;29;20040;-78
2023/01/14 13:34:25;;;;;;;3.13;1.00;;;8.30;99.90;;;;;;4893594;29;20568;-78
2023/01/14 13:37:00;;;;;;;1.95;0.80;;;8.30;99.90;;;;;;4867068;29;20043;-78
2023/01/14 13:39:27;;;;;;;2.78;1.02;;;8.30;99.90;;;;;;4887741;29;20079;-78
2023/01/14 13:42:01;;;;;;;2.20;0.85;;;8.40;99.90;;;;;;4883089;29;20040;-78
2023/01/14 13:44:32;;;;;;;4.03;1.05;;;8.40;99.90;;;;;;4888957;29;20043;-77
2023/01/14 13:47:06;;;;;;;2.13;0.70;;;8.40;99.90;;;;;;4865280;29;20131;-77
2023/01/14 13:49:36;;;;;;;1.08;0.93;;;8.50;99.90;;;;;;4872975;29;20051;-77
2023/01/14 13:52:24;;;;;;;0.93;0.60;;;8.40;99.90;;;;;;4879013;29;20047;-77